sensor_id;sensor_type;location;lat;lon;timestamp;temperature;humidity
40516;DHT22;26216;53.724;9.898;2023-07-09T00:02:21;21.70;70.20
40516;DHT22;26216;53.724;9.898;2023-07-09T00:04:47;21.70;69.90
40516;DHT22;26216;53.724;9.898;2023-07-09T00:07:24;21.70;69.80
40516;DHT22;26216;53.724;9.898;2023-07-09T00:09:53;21.70;70.40
40516;DHT22;26216;53.724;9.898;2023-07-09T00:12:19;21.70;70.20
40516;DHT22;26216;53.724;9.898;2023-07-09T00:14:45;21.60;70.00
40516;DHT22;26216;53.724;9.898;2023-07-09T00:17:23;21.60;69.90
40516;DHT22;26216;53.724;9.898;2023-07-09T00:19:51;21.60;70.00
40516;DHT22;26216;53.724;9.898;2023-07-09T00:22:18;21.60;70.20
40516;DHT22;26216;53.724;9.898;2023-07-09T00:24:49;21.60;70.20
40516;DHT22;26216;53.724;9.898;2023-07-09T00:27:18;21.60;70.40
40516;DHT22;26216;53.724;9.898;2023-07-09T00:29:45;21.60;70.20
40516;DHT22;26216;53.724;9.898;2023-07-09T00:32:12;21.50;70.40
40516;DHT22;26216;53.724;9.898;2023-07-09T00:34:41;21.50;70.20
40516;DHT22;26216;53.724;9.898;2023-07-09T00:37:11;21.50;70.30
40516;DHT22;26216;53.724;9.898;2023-07-09T00:39:58;21.50;70.40
40516;DHT22;26216;53.724;9.898;2023-07-09T00:42:24;21.40;70.50
40516;DHT22;26216;53.724;9.898;2023-07-09T00:44:54;21.40;70.70
40516;DHT22;26216;53.724;9.898;2023-07-09T00:47:30;21.40;70.80
40516;DHT22;26216;53.724;9.898;2023-07-09T00:50:21;21.30;70.70
40516;DHT22;26216;53.724;9.898;2023-07-09T00:52:59;21.30;71.00
40516;DHT22;26216;53.724;9.898;2023-07-09T00:55:33;21.30;70.80
40516;DHT22;26216;53.724;9.898;2023-07-09T00:58:06;21.20;71.10
40516;DHT22;26216;53.724;9.898;2023-07-09T01:00:41;21.20;70.80
40516;DHT22;26216;53.724;9.898;2023-07-09T01:03:37;21.20;71.30
40516;DHT22;26216;53.724;9.898;2023-07-09T01:06:04;21.10;71.20
40516;DHT22;26216;53.724;9.898;2023-07-09T01:08:33;21.10;70.90
40516;DHT22;26216;53.724;9.898;2023-07-09T01:11:00;21.10;70.90
40516;DHT22;26216;53.724;9.898;2023-07-09T01:13:27;21.10;71.00
40516;DHT22;26216;53.724;9.898;2023-07-09T01:15:53;21.00;70.90
40516;DHT22;26216;53.724;9.898;2023-07-09T01:18:20;21.00;70.80
40516;DHT22;26216;53.724;9.898;2023-07-09T01:20:47;21.00;71.30
40516;DHT22;26216;53.724;9.898;2023-07-09T01:23:13;21.00;71.00
40516;DHT22;26216;53.724;9.898;2023-07-09T01:25:48;21.00;71.40
40516;DHT22;26216;53.724;9.898;2023-07-09T01:28:18;21.00;71.30
40516;DHT22;26216;53.724;9.898;2023-07-09T01:30:44;20.90;71.20
40516;DHT22;26216;53.724;9.898;2023-07-09T01:33:10;20.90;71.20
40516;DHT22;26216;53.724;9.898;2023-07-09T01:35:38;20.90;71.40
40516;DHT22;26216;53.724;9.898;2023-07-09T01:38:07;20.90;71.50
40516;DHT22;26216;53.724;9.898;2023-07-09T01:40:33;20.80;71.10
40516;DHT22;26216;53.724;9.898;2023-07-09T01:43:00;20.80;71.10
40516;DHT22;26216;53.724;9.898;2023-07-09T01:45:27;20.80;71.10
40516;DHT22;26216;53.724;9.898;2023-07-09T01:47:54;20.80;71.10
40516;DHT22;26216;53.724;9.898;2023-07-09T01:50:21;20.80;71.30
40516;DHT22;26216;53.724;9.898;2023-07-09T01:52:47;20.70;71.20
40516;DHT22;26216;53.724;9.898;2023-07-09T01:55:15;20.70;71.10
40516;DHT22;26216;53.724;9.898;2023-07-09T01:57:43;20.70;71.20
40516;DHT22;26216;53.724;9.898;2023-07-09T02:00:15;20.70;71.30
40516;DHT22;26216;53.724;9.898;2023-07-09T02:02:42;20.70;71.20
40516;DHT22;26216;53.724;9.898;2023-07-09T02:05:09;20.60;71.00
40516;DHT22;26216;53.724;9.898;2023-07-09T02:07:36;20.60;71.20
40516;DHT22;26216;53.724;9.898;2023-07-09T02:10:02;20.60;71.40
40516;DHT22;26216;53.724;9.898;2023-07-09T02:12:28;20.60;71.20
40516;DHT22;26216;53.724;9.898;2023-07-09T02:14:54;20.60;71.10
40516;DHT22;26216;53.724;9.898;2023-07-09T02:17:19;20.60;71.00
40516;DHT22;26216;53.724;9.898;2023-07-09T02:19:45;20.60;71.10
40516;DHT22;26216;53.724;9.898;2023-07-09T02:22:11;20.50;71.20
40516;DHT22;26216;53.724;9.898;2023-07-09T02:24:37;20.50;71.30
40516;DHT22;26216;53.724;9.898;2023-07-09T02:27:06;20.50;71.90
40516;DHT22;26216;53.724;9.898;2023-07-09T02:29:33;20.50;71.40
40516;DHT22;26216;53.724;9.898;2023-07-09T02:32:00;20.40;71.40
40516;DHT22;26216;53.724;9.898;2023-07-09T02:34:27;20.40;71.30
40516;DHT22;26216;53.724;9.898;2023-07-09T02:36:55;20.40;71.60
40516;DHT22;26216;53.724;9.898;2023-07-09T02:39:22;20.40;71.40
40516;DHT22;26216;53.724;9.898;2023-07-09T02:41:48;20.40;71.40
40516;DHT22;26216;53.724;9.898;2023-07-09T02:44:15;20.40;71.40
40516;DHT22;26216;53.724;9.898;2023-07-09T02:46:41;20.30;71.30
40516;DHT22;26216;53.724;9.898;2023-07-09T02:49:09;20.30;71.40
40516;DHT22;26216;53.724;9.898;2023-07-09T02:51:35;20.30;71.40
40516;DHT22;26216;53.724;9.898;2023-07-09T02:54:02;20.30;71.40
40516;DHT22;26216;53.724;9.898;2023-07-09T02:56:28;20.30;71.60
40516;DHT22;26216;53.724;9.898;2023-07-09T02:58:54;20.30;71.60
40516;DHT22;26216;53.724;9.898;2023-07-09T03:01:20;20.30;71.40
40516;DHT22;26216;53.724;9.898;2023-07-09T03:03:54;20.30;71.40
40516;DHT22;26216;53.724;9.898;2023-07-09T03:06:21;20.30;71.40
40516;DHT22;26216;53.724;9.898;2023-07-09T03:08:47;20.30;71.50
40516;DHT22;26216;53.724;9.898;2023-07-09T03:11:15;20.20;71.50
40516;DHT22;26216;53.724;9.898;2023-07-09T03:13:41;20.20;71.50
40516;DHT22;26216;53.724;9.898;2023-07-09T03:16:07;20.20;71.40
40516;DHT22;26216;53.724;9.898;2023-07-09T03:18:33;20.20;71.60
40516;DHT22;26216;53.724;9.898;2023-07-09T03:20:59;20.20;71.50
40516;DHT22;26216;53.724;9.898;2023-07-09T03:23:25;20.20;71.60
40516;DHT22;26216;53.724;9.898;2023-07-09T03:25:51;20.20;71.60
40516;DHT22;26216;53.724;9.898;2023-07-09T03:28:17;20.20;71.50
40516;DHT22;26216;53.724;9.898;2023-07-09T03:30:45;20.20;71.50
40516;DHT22;26216;53.724;9.898;2023-07-09T03:33:12;20.20;71.80
40516;DHT22;26216;53.724;9.898;2023-07-09T03:35:39;20.10;72.10
40516;DHT22;26216;53.724;9.898;2023-07-09T03:38:05;20.20;71.80
40516;DHT22;26216;53.724;9.898;2023-07-09T03:40:31;20.20;71.70
40516;DHT22;26216;53.724;9.898;2023-07-09T03:42:57;20.10;71.80
40516;DHT22;26216;53.724;9.898;2023-07-09T03:45:24;20.20;71.80
40516;DHT22;26216;53.724;9.898;2023-07-09T03:47:50;20.10;71.70
40516;DHT22;26216;53.724;9.898;2023-07-09T03:50:16;20.20;72.10
40516;DHT22;26216;53.724;9.898;2023-07-09T03:52:42;20.20;71.80
40516;DHT22;26216;53.724;9.898;2023-07-09T03:55:08;20.20;71.90
40516;DHT22;26216;53.724;9.898;2023-07-09T03:57:35;20.10;72.00
40516;DHT22;26216;53.724;9.898;2023-07-09T04:00:03;20.20;71.90
40516;DHT22;26216;53.724;9.898;2023-07-09T04:02:30;20.20;72.00
40516;DHT22;26216;53.724;9.898;2023-07-09T04:05:00;20.20;72.10
40516;DHT22;26216;53.724;9.898;2023-07-09T04:07:25;20.20;72.00
40516;DHT22;26216;53.724;9.898;2023-07-09T04:09:51;20.20;71.90
40516;DHT22;26216;53.724;9.898;2023-07-09T04:12:17;20.30;72.00
40516;DHT22;26216;53.724;9.898;2023-07-09T04:14:43;20.30;71.90
40516;DHT22;26216;53.724;9.898;2023-07-09T04:17:09;20.30;71.80
40516;DHT22;26216;53.724;9.898;2023-07-09T04:19:36;20.40;71.80
40516;DHT22;26216;53.724;9.898;2023-07-09T04:22:02;20.40;71.70
40516;DHT22;26216;53.724;9.898;2023-07-09T04:24:27;20.50;71.60
40516;DHT22;26216;53.724;9.898;2023-07-09T04:26:54;20.50;71.70
40516;DHT22;26216;53.724;9.898;2023-07-09T04:29:25;20.50;71.50
40516;DHT22;26216;53.724;9.898;2023-07-09T04:31:52;20.60;71.70
40516;DHT22;26216;53.724;9.898;2023-07-09T04:34:18;20.60;71.40
40516;DHT22;26216;53.724;9.898;2023-07-09T04:36:44;20.60;71.50
40516;DHT22;26216;53.724;9.898;2023-07-09T04:39:09;20.60;71.10
40516;DHT22;26216;53.724;9.898;2023-07-09T04:41:35;20.60;71.20
40516;DHT22;26216;53.724;9.898;2023-07-09T04:44:01;20.70;71.30
40516;DHT22;26216;53.724;9.898;2023-07-09T04:46:27;20.70;71.40
40516;DHT22;26216;53.724;9.898;2023-07-09T04:48:53;20.70;71.20
40516;DHT22;26216;53.724;9.898;2023-07-09T04:51:18;20.80;71.40
40516;DHT22;26216;53.724;9.898;2023-07-09T04:53:44;20.80;71.50
40516;DHT22;26216;53.724;9.898;2023-07-09T04:56:10;20.80;71.30
40516;DHT22;26216;53.724;9.898;2023-07-09T04:58:37;20.80;71.50
40516;DHT22;26216;53.724;9.898;2023-07-09T05:01:02;20.90;71.70
40516;DHT22;26216;53.724;9.898;2023-07-09T05:03:29;21.00;71.60
40516;DHT22;26216;53.724;9.898;2023-07-09T05:05:55;21.00;71.90
40516;DHT22;26216;53.724;9.898;2023-07-09T05:08:20;21.10;71.70
40516;DHT22;26216;53.724;9.898;2023-07-09T05:10:50;21.20;71.60
40516;DHT22;26216;53.724;9.898;2023-07-09T05:13:17;21.30;71.70
40516;DHT22;26216;53.724;9.898;2023-07-09T05:15:46;21.40;71.80
40516;DHT22;26216;53.724;9.898;2023-07-09T05:18:13;21.50;71.60
40516;DHT22;26216;53.724;9.898;2023-07-09T05:20:40;21.60;71.40
40516;DHT22;26216;53.724;9.898;2023-07-09T05:23:10;21.70;71.70
40516;DHT22;26216;53.724;9.898;2023-07-09T05:25:36;21.80;71.70
40516;DHT22;26216;53.724;9.898;2023-07-09T05:28:03;22.00;71.70
40516;DHT22;26216;53.724;9.898;2023-07-09T05:30:29;22.10;71.80
40516;DHT22;26216;53.724;9.898;2023-07-09T05:32:55;22.20;71.40
40516;DHT22;26216;53.724;9.898;2023-07-09T05:35:26;22.40;71.50
40516;DHT22;26216;53.724;9.898;2023-07-09T05:37:54;22.50;71.50
40516;DHT22;26216;53.724;9.898;2023-07-09T05:40:20;22.70;71.00
40516;DHT22;26216;53.724;9.898;2023-07-09T05:42:47;22.80;70.70
40516;DHT22;26216;53.724;9.898;2023-07-09T05:45:14;22.90;70.70
40516;DHT22;26216;53.724;9.898;2023-07-09T05:47:40;23.00;70.10
40516;DHT22;26216;53.724;9.898;2023-07-09T05:50:06;23.10;70.10
40516;DHT22;26216;53.724;9.898;2023-07-09T05:52:32;23.20;70.20
40516;DHT22;26216;53.724;9.898;2023-07-09T05:54:58;23.40;69.80
40516;DHT22;26216;53.724;9.898;2023-07-09T05:57:25;23.40;69.50
40516;DHT22;26216;53.724;9.898;2023-07-09T05:59:51;23.50;69.40
40516;DHT22;26216;53.724;9.898;2023-07-09T06:02:19;23.70;69.50
40516;DHT22;26216;53.724;9.898;2023-07-09T06:04:46;23.70;69.40
40516;DHT22;26216;53.724;9.898;2023-07-09T06:07:13;23.80;69.50
40516;DHT22;26216;53.724;9.898;2023-07-09T06:09:39;23.90;70.10
40516;DHT22;26216;53.724;9.898;2023-07-09T06:12:06;24.00;69.50
40516;DHT22;26216;53.724;9.898;2023-07-09T06:14:33;24.10;69.40
40516;DHT22;26216;53.724;9.898;2023-07-09T06:17:00;24.20;69.00
40516;DHT22;26216;53.724;9.898;2023-07-09T06:19:26;24.30;69.50
40516;DHT22;26216;53.724;9.898;2023-07-09T06:21:52;24.50;69.10
40516;DHT22;26216;53.724;9.898;2023-07-09T06:24:18;24.60;68.50
40516;DHT22;26216;53.724;9.898;2023-07-09T06:26:43;24.70;68.80
40516;DHT22;26216;53.724;9.898;2023-07-09T06:29:09;24.80;68.40
40516;DHT22;26216;53.724;9.898;2023-07-09T06:31:35;24.90;69.20
40516;DHT22;26216;53.724;9.898;2023-07-09T06:34:03;25.00;68.60
40516;DHT22;26216;53.724;9.898;2023-07-09T06:36:29;25.10;68.50
40516;DHT22;26216;53.724;9.898;2023-07-09T06:38:55;25.30;68.40
40516;DHT22;26216;53.724;9.898;2023-07-09T06:41:21;25.30;68.50
40516;DHT22;26216;53.724;9.898;2023-07-09T06:43:47;25.50;68.70
40516;DHT22;26216;53.724;9.898;2023-07-09T06:46:14;25.50;68.30
40516;DHT22;26216;53.724;9.898;2023-07-09T06:48:40;25.70;68.50
40516;DHT22;26216;53.724;9.898;2023-07-09T06:51:06;25.80;68.30
40516;DHT22;26216;53.724;9.898;2023-07-09T06:53:32;25.90;68.30
40516;DHT22;26216;53.724;9.898;2023-07-09T06:55:58;26.00;68.40
40516;DHT22;26216;53.724;9.898;2023-07-09T06:58:26;26.10;68.20
40516;DHT22;26216;53.724;9.898;2023-07-09T07:00:54;26.30;68.00
40516;DHT22;26216;53.724;9.898;2023-07-09T07:03:21;26.40;68.50
40516;DHT22;26216;53.724;9.898;2023-07-09T07:05:48;26.50;67.90
40516;DHT22;26216;53.724;9.898;2023-07-09T07:08:20;26.60;67.60
40516;DHT22;26216;53.724;9.898;2023-07-09T07:10:48;26.70;68.10
40516;DHT22;26216;53.724;9.898;2023-07-09T07:13:14;26.80;66.50
40516;DHT22;26216;53.724;9.898;2023-07-09T07:15:40;26.90;66.60
40516;DHT22;26216;53.724;9.898;2023-07-09T07:18:07;27.00;66.30
40516;DHT22;26216;53.724;9.898;2023-07-09T07:20:33;27.00;66.30
40516;DHT22;26216;53.724;9.898;2023-07-09T07:22:59;27.20;66.40
40516;DHT22;26216;53.724;9.898;2023-07-09T07:25:25;27.20;66.20
40516;DHT22;26216;53.724;9.898;2023-07-09T07:27:52;27.30;66.70
40516;DHT22;26216;53.724;9.898;2023-07-09T07:30:19;27.40;66.10
40516;DHT22;26216;53.724;9.898;2023-07-09T07:32:47;27.40;66.50
40516;DHT22;26216;53.724;9.898;2023-07-09T07:35:15;27.60;66.20
40516;DHT22;26216;53.724;9.898;2023-07-09T07:37:41;27.60;66.60
40516;DHT22;26216;53.724;9.898;2023-07-09T07:40:09;27.70;65.90
40516;DHT22;26216;53.724;9.898;2023-07-09T07:42:36;27.80;65.40
40516;DHT22;26216;53.724;9.898;2023-07-09T07:45:03;27.90;64.90
40516;DHT22;26216;53.724;9.898;2023-07-09T07:47:29;28.00;64.70
40516;DHT22;26216;53.724;9.898;2023-07-09T07:49:56;28.10;64.50
40516;DHT22;26216;53.724;9.898;2023-07-09T07:52:23;28.20;64.60
40516;DHT22;26216;53.724;9.898;2023-07-09T07:54:49;28.20;64.60
40516;DHT22;26216;53.724;9.898;2023-07-09T07:57:15;28.30;65.50
40516;DHT22;26216;53.724;9.898;2023-07-09T07:59:41;28.40;64.50
40516;DHT22;26216;53.724;9.898;2023-07-09T08:02:11;28.40;64.40
40516;DHT22;26216;53.724;9.898;2023-07-09T08:04:38;28.50;64.10
40516;DHT22;26216;53.724;9.898;2023-07-09T08:07:04;28.60;64.00
40516;DHT22;26216;53.724;9.898;2023-07-09T08:09:30;28.60;63.30
40516;DHT22;26216;53.724;9.898;2023-07-09T08:11:56;28.70;63.70
40516;DHT22;26216;53.724;9.898;2023-07-09T08:14:22;28.80;63.80
40516;DHT22;26216;53.724;9.898;2023-07-09T08:16:48;28.90;64.00
40516;DHT22;26216;53.724;9.898;2023-07-09T08:21:40;29.00;64.20
40516;DHT22;26216;53.724;9.898;2023-07-09T08:24:06;29.10;64.30
40516;DHT22;26216;53.724;9.898;2023-07-09T08:26:32;29.20;64.40
40516;DHT22;26216;53.724;9.898;2023-07-09T08:29:05;29.20;64.20
40516;DHT22;26216;53.724;9.898;2023-07-09T08:31:31;29.40;63.90
40516;DHT22;26216;53.724;9.898;2023-07-09T08:33:57;29.40;63.10
40516;DHT22;26216;53.724;9.898;2023-07-09T08:36:23;29.40;63.30
40516;DHT22;26216;53.724;9.898;2023-07-09T08:38:49;29.50;62.30
40516;DHT22;26216;53.724;9.898;2023-07-09T08:41:32;29.60;62.70
40516;DHT22;26216;53.724;9.898;2023-07-09T08:44:10;29.60;62.10
40516;DHT22;26216;53.724;9.898;2023-07-09T08:49:46;29.80;62.20
40516;DHT22;26216;53.724;9.898;2023-07-09T08:52:35;29.80;61.70
40516;DHT22;26216;53.724;9.898;2023-07-09T08:55:11;29.80;61.50
40516;DHT22;26216;53.724;9.898;2023-07-09T08:57:41;29.80;61.50
40516;DHT22;26216;53.724;9.898;2023-07-09T09:00:22;29.90;61.80
40516;DHT22;26216;53.724;9.898;2023-07-09T09:03:05;30.00;62.00
40516;DHT22;26216;53.724;9.898;2023-07-09T09:05:38;30.00;61.80
40516;DHT22;26216;53.724;9.898;2023-07-09T09:11:20;30.20;61.90
40516;DHT22;26216;53.724;9.898;2023-07-09T09:13:50;30.30;62.60
40516;DHT22;26216;53.724;9.898;2023-07-09T09:16:39;30.40;61.70
40516;DHT22;26216;53.724;9.898;2023-07-09T09:19:18;30.50;61.80
40516;DHT22;26216;53.724;9.898;2023-07-09T09:25:32;30.70;61.60
40516;DHT22;26216;53.724;9.898;2023-07-09T09:27:59;30.80;61.70
40516;DHT22;26216;53.724;9.898;2023-07-09T09:30:40;30.90;61.80
40516;DHT22;26216;53.724;9.898;2023-07-09T09:33:09;31.00;61.80
40516;DHT22;26216;53.724;9.898;2023-07-09T09:35:42;31.10;61.50
40516;DHT22;26216;53.724;9.898;2023-07-09T09:38:18;31.20;61.50
40516;DHT22;26216;53.724;9.898;2023-07-09T09:40:44;31.30;61.70
40516;DHT22;26216;53.724;9.898;2023-07-09T09:43:19;31.40;61.70
40516;DHT22;26216;53.724;9.898;2023-07-09T09:45:50;31.50;61.60
40516;DHT22;26216;53.724;9.898;2023-07-09T09:48:20;31.60;61.90
40516;DHT22;26216;53.724;9.898;2023-07-09T09:50:52;31.70;61.00
40516;DHT22;26216;53.724;9.898;2023-07-09T09:53:21;31.80;60.40
40516;DHT22;26216;53.724;9.898;2023-07-09T09:55:48;31.90;60.00
40516;DHT22;26216;53.724;9.898;2023-07-09T09:58:17;32.00;60.10
40516;DHT22;26216;53.724;9.898;2023-07-09T10:00:49;32.10;59.20
40516;DHT22;26216;53.724;9.898;2023-07-09T10:03:15;32.20;59.60
40516;DHT22;26216;53.724;9.898;2023-07-09T10:05:48;32.20;60.20
40516;DHT22;26216;53.724;9.898;2023-07-09T10:10:58;32.40;60.30
40516;DHT22;26216;53.724;9.898;2023-07-09T10:13:32;32.50;60.50
40516;DHT22;26216;53.724;9.898;2023-07-09T10:16:16;32.60;58.40
40516;DHT22;26216;53.724;9.898;2023-07-09T10:19:12;32.70;59.60
40516;DHT22;26216;53.724;9.898;2023-07-09T10:21:57;32.70;59.20
40516;DHT22;26216;53.724;9.898;2023-07-09T10:24:45;32.80;58.10
40516;DHT22;26216;53.724;9.898;2023-07-09T10:27:17;32.90;59.30
40516;DHT22;26216;53.724;9.898;2023-07-09T10:29:52;33.00;58.20
40516;DHT22;26216;53.724;9.898;2023-07-09T10:40:10;33.20;58.70
40516;DHT22;26216;53.724;9.898;2023-07-09T10:42:58;33.30;58.30
40516;DHT22;26216;53.724;9.898;2023-07-09T10:45:31;33.40;58.40
40516;DHT22;26216;53.724;9.898;2023-07-09T10:48:06;33.50;57.40
40516;DHT22;26216;53.724;9.898;2023-07-09T10:50:37;33.50;57.70
40516;DHT22;26216;53.724;9.898;2023-07-09T10:55:52;33.70;58.10
40516;DHT22;26216;53.724;9.898;2023-07-09T11:01:15;33.90;57.20
40516;DHT22;26216;53.724;9.898;2023-07-09T11:03:54;33.90;57.10
40516;DHT22;26216;53.724;9.898;2023-07-09T11:08:57;34.10;57.80
40516;DHT22;26216;53.724;9.898;2023-07-09T11:14:02;34.20;56.40
40516;DHT22;26216;53.724;9.898;2023-07-09T11:16:34;34.30;56.20
40516;DHT22;26216;53.724;9.898;2023-07-09T11:19:04;34.30;56.70
40516;DHT22;26216;53.724;9.898;2023-07-09T11:21:32;34.40;56.50
40516;DHT22;26216;53.724;9.898;2023-07-09T11:24:01;34.40;56.40
40516;DHT22;26216;53.724;9.898;2023-07-09T11:26:30;34.50;56.20
40516;DHT22;26216;53.724;9.898;2023-07-09T11:29:16;34.50;55.80
40516;DHT22;26216;53.724;9.898;2023-07-09T11:31:44;34.60;54.70
40516;DHT22;26216;53.724;9.898;2023-07-09T11:39:26;34.80;56.00
40516;DHT22;26216;53.724;9.898;2023-07-09T11:41:52;34.80;55.50
40516;DHT22;26216;53.724;9.898;2023-07-09T11:44:21;34.90;55.10
40516;DHT22;26216;53.724;9.898;2023-07-09T11:46:54;35.00;54.40
40516;DHT22;26216;53.724;9.898;2023-07-09T11:49:25;35.00;54.20
40516;DHT22;26216;53.724;9.898;2023-07-09T11:51:57;35.10;54.00
40516;DHT22;26216;53.724;9.898;2023-07-09T11:54:24;35.10;54.30
40516;DHT22;26216;53.724;9.898;2023-07-09T11:56:59;35.20;54.20
40516;DHT22;26216;53.724;9.898;2023-07-09T11:59:27;35.30;54.80
40516;DHT22;26216;53.724;9.898;2023-07-09T12:01:53;35.30;54.00
40516;DHT22;26216;53.724;9.898;2023-07-09T12:04:25;35.30;54.10
40516;DHT22;26216;53.724;9.898;2023-07-09T12:06:57;35.40;54.50
40516;DHT22;26216;53.724;9.898;2023-07-09T12:09:23;35.40;54.10
40516;DHT22;26216;53.724;9.898;2023-07-09T12:11:50;35.40;54.50
40516;DHT22;26216;53.724;9.898;2023-07-09T12:14:19;35.50;54.70
40516;DHT22;26216;53.724;9.898;2023-07-09T12:16:55;35.50;53.70
40516;DHT22;26216;53.724;9.898;2023-07-09T12:19:23;35.60;54.60
40516;DHT22;26216;53.724;9.898;2023-07-09T12:21:56;35.70;53.80
40516;DHT22;26216;53.724;9.898;2023-07-09T12:27:17;35.90;53.80
40516;DHT22;26216;53.724;9.898;2023-07-09T12:29:43;35.90;52.40
40516;DHT22;26216;53.724;9.898;2023-07-09T12:32:15;36.10;53.30
40516;DHT22;26216;53.724;9.898;2023-07-09T12:34:42;36.10;52.70
40516;DHT22;26216;53.724;9.898;2023-07-09T12:37:14;36.20;52.60
40516;DHT22;26216;53.724;9.898;2023-07-09T12:39:40;36.20;52.50
40516;DHT22;26216;53.724;9.898;2023-07-09T12:42:18;36.30;52.50
40516;DHT22;26216;53.724;9.898;2023-07-09T12:44:46;36.30;51.50
40516;DHT22;26216;53.724;9.898;2023-07-09T12:47:15;36.30;51.90
40516;DHT22;26216;53.724;9.898;2023-07-09T12:49:44;36.30;51.80
40516;DHT22;26216;53.724;9.898;2023-07-09T12:52:21;36.40;52.10
40516;DHT22;26216;53.724;9.898;2023-07-09T12:54:57;36.40;52.20
40516;DHT22;26216;53.724;9.898;2023-07-09T12:57:24;36.40;52.50
40516;DHT22;26216;53.724;9.898;2023-07-09T12:59:50;36.50;51.70
40516;DHT22;26216;53.724;9.898;2023-07-09T13:02:24;36.60;51.70
40516;DHT22;26216;53.724;9.898;2023-07-09T13:05:03;36.60;50.90
40516;DHT22;26216;53.724;9.898;2023-07-09T13:07:32;36.70;50.70
40516;DHT22;26216;53.724;9.898;2023-07-09T13:10:05;36.70;50.60
40516;DHT22;26216;53.724;9.898;2023-07-09T13:12:33;36.80;51.10
40516;DHT22;26216;53.724;9.898;2023-07-09T13:14:59;36.80;50.50
40516;DHT22;26216;53.724;9.898;2023-07-09T13:17:32;36.80;50.00
40516;DHT22;26216;53.724;9.898;2023-07-09T13:19:58;36.90;50.70
40516;DHT22;26216;53.724;9.898;2023-07-09T13:22:25;36.90;51.10
40516;DHT22;26216;53.724;9.898;2023-07-09T13:24:51;37.00;50.80
40516;DHT22;26216;53.724;9.898;2023-07-09T13:27:17;37.10;51.10
40516;DHT22;26216;53.724;9.898;2023-07-09T13:29:43;37.10;50.70
40516;DHT22;26216;53.724;9.898;2023-07-09T13:32:14;37.20;49.00
40516;DHT22;26216;53.724;9.898;2023-07-09T13:34:40;37.20;49.30
40516;DHT22;26216;53.724;9.898;2023-07-09T13:37:14;37.20;49.10
40516;DHT22;26216;53.724;9.898;2023-07-09T13:39:41;37.30;48.90
40516;DHT22;26216;53.724;9.898;2023-07-09T13:42:13;37.30;49.00
40516;DHT22;26216;53.724;9.898;2023-07-09T13:44:41;37.30;48.20
40516;DHT22;26216;53.724;9.898;2023-07-09T13:47:18;37.30;48.30
40516;DHT22;26216;53.724;9.898;2023-07-09T13:49:45;37.30;48.50
40516;DHT22;26216;53.724;9.898;2023-07-09T13:52:18;37.30;48.30
40516;DHT22;26216;53.724;9.898;2023-07-09T13:54:46;37.40;47.80
40516;DHT22;26216;53.724;9.898;2023-07-09T13:57:19;37.40;48.00
40516;DHT22;26216;53.724;9.898;2023-07-09T13:59:46;37.40;48.20
40516;DHT22;26216;53.724;9.898;2023-07-09T14:02:28;37.40;49.00
40516;DHT22;26216;53.724;9.898;2023-07-09T14:05:02;37.40;48.60
40516;DHT22;26216;53.724;9.898;2023-07-09T14:07:33;37.50;48.10
40516;DHT22;26216;53.724;9.898;2023-07-09T14:10:00;37.50;48.70
40516;DHT22;26216;53.724;9.898;2023-07-09T14:12:44;37.50;49.10
40516;DHT22;26216;53.724;9.898;2023-07-09T14:15:19;37.60;49.60
40516;DHT22;26216;53.724;9.898;2023-07-09T14:17:46;37.60;47.60
40516;DHT22;26216;53.724;9.898;2023-07-09T14:20:14;37.70;47.80
40516;DHT22;26216;53.724;9.898;2023-07-09T14:22:41;37.70;47.60
40516;DHT22;26216;53.724;9.898;2023-07-09T14:25:22;37.70;47.60
40516;DHT22;26216;53.724;9.898;2023-07-09T14:27:52;37.80;47.30
40516;DHT22;26216;53.724;9.898;2023-07-09T14:30:24;37.80;47.90
40516;DHT22;26216;53.724;9.898;2023-07-09T14:32:51;37.80;46.90
40516;DHT22;26216;53.724;9.898;2023-07-09T14:35:23;37.80;47.40
40516;DHT22;26216;53.724;9.898;2023-07-09T14:37:51;37.80;45.80
40516;DHT22;26216;53.724;9.898;2023-07-09T14:40:19;37.70;46.00
40516;DHT22;26216;53.724;9.898;2023-07-09T14:42:46;37.70;46.50
40516;DHT22;26216;53.724;9.898;2023-07-09T14:45:31;37.70;46.70
40516;DHT22;26216;53.724;9.898;2023-07-09T14:47:57;37.70;46.70
40516;DHT22;26216;53.724;9.898;2023-07-09T14:50:25;37.70;47.10
40516;DHT22;26216;53.724;9.898;2023-07-09T14:52:51;37.70;47.40
40516;DHT22;26216;53.724;9.898;2023-07-09T14:55:19;37.80;47.90
40516;DHT22;26216;53.724;9.898;2023-07-09T14:57:47;37.80;47.30
40516;DHT22;26216;53.724;9.898;2023-07-09T15:00:19;37.90;46.20
40516;DHT22;26216;53.724;9.898;2023-07-09T15:02:48;38.00;45.50
40516;DHT22;26216;53.724;9.898;2023-07-09T15:05:23;38.00;46.30
40516;DHT22;26216;53.724;9.898;2023-07-09T15:07:49;38.10;45.80
40516;DHT22;26216;53.724;9.898;2023-07-09T15:10:18;38.20;45.50
40516;DHT22;26216;53.724;9.898;2023-07-09T15:12:47;38.30;45.40
40516;DHT22;26216;53.724;9.898;2023-07-09T15:17:45;38.50;45.10
40516;DHT22;26216;53.724;9.898;2023-07-09T15:20:19;38.60;45.10
40516;DHT22;26216;53.724;9.898;2023-07-09T15:22:46;38.60;45.20
40516;DHT22;26216;53.724;9.898;2023-07-09T15:25:15;38.70;45.30
40516;DHT22;26216;53.724;9.898;2023-07-09T15:27:43;38.90;44.70
40516;DHT22;26216;53.724;9.898;2023-07-09T15:30:17;39.00;44.10
40516;DHT22;26216;53.724;9.898;2023-07-09T15:32:47;39.00;43.50
40516;DHT22;26216;53.724;9.898;2023-07-09T15:35:19;39.10;44.40
40516;DHT22;26216;53.724;9.898;2023-07-09T15:37:46;39.20;44.00
40516;DHT22;26216;53.724;9.898;2023-07-09T15:40:26;39.20;43.20
40516;DHT22;26216;53.724;9.898;2023-07-09T15:42:58;39.30;42.80
40516;DHT22;26216;53.724;9.898;2023-07-09T15:45:45;39.30;42.80
40516;DHT22;26216;53.724;9.898;2023-07-09T15:48:23;39.30;43.00
40516;DHT22;26216;53.724;9.898;2023-07-09T15:50:51;39.40;42.30
40516;DHT22;26216;53.724;9.898;2023-07-09T15:53:17;39.40;43.40
40516;DHT22;26216;53.724;9.898;2023-07-09T15:55:43;39.40;42.90
40516;DHT22;26216;53.724;9.898;2023-07-09T15:58:16;39.30;43.30
40516;DHT22;26216;53.724;9.898;2023-07-09T16:00:44;39.30;42.90
40516;DHT22;26216;53.724;9.898;2023-07-09T16:03:11;39.30;43.40
40516;DHT22;26216;53.724;9.898;2023-07-09T16:05:37;39.30;43.40
40516;DHT22;26216;53.724;9.898;2023-07-09T16:08:04;39.20;43.40
40516;DHT22;26216;53.724;9.898;2023-07-09T16:10:31;39.20;43.20
40516;DHT22;26216;53.724;9.898;2023-07-09T16:12:58;39.10;43.60
40516;DHT22;26216;53.724;9.898;2023-07-09T16:15:25;39.10;44.20
40516;DHT22;26216;53.724;9.898;2023-07-09T16:17:54;39.00;43.60
40516;DHT22;26216;53.724;9.898;2023-07-09T16:20:25;38.90;43.30
40516;DHT22;26216;53.724;9.898;2023-07-09T16:22:56;38.70;43.20
40516;DHT22;26216;53.724;9.898;2023-07-09T16:25:43;38.60;43.00
40516;DHT22;26216;53.724;9.898;2023-07-09T16:28:17;38.40;42.60